sensor_id;sensor_type;location;lat;lon;timestamp;P1;durP1;ratioP1;P2;durP2;ratioP2
76171;SDS011;64929;51.178;4.138;2023-07-09T00:01:59;3.80;;;2.53;;
76171;SDS011;64929;51.178;4.138;2023-07-09T00:04:25;3.35;;;2.25;;
76171;SDS011;64929;51.178;4.138;2023-07-09T00:06:51;2.85;;;2.38;;
76171;SDS011;64929;51.178;4.138;2023-07-09T00:09:18;3.78;;;2.53;;
76171;SDS011;64929;51.178;4.138;2023-07-09T00:11:46;3.40;;;2.20;;
76171;SDS011;64929;51.178;4.138;2023-07-09T00:14:13;3.92;;;2.60;;
76171;SDS011;64929;51.178;4.138;2023-07-09T00:16:40;4.45;;;2.78;;
76171;SDS011;64929;51.178;4.138;2023-07-09T00:19:12;3.53;;;2.47;;
76171;SDS011;64929;51.178;4.138;2023-07-09T00:21:44;3.20;;;2.53;;
76171;SDS011;64929;51.178;4.138;2023-07-09T00:24:13;3.78;;;2.45;;
76171;SDS011;64929;51.178;4.138;2023-07-09T00:26:40;4.10;;;2.55;;
76171;SDS011;64929;51.178;4.138;2023-07-09T00:29:09;3.50;;;2.42;;
76171;SDS011;64929;51.178;4.138;2023-07-09T00:31:36;3.70;;;2.72;;
76171;SDS011;64929;51.178;4.138;2023-07-09T00:36:39;4.47;;;2.90;;
76171;SDS011;64929;51.178;4.138;2023-07-09T00:39:19;3.33;;;2.38;;
76171;SDS011;64929;51.178;4.138;2023-07-09T00:41:47;5.03;;;2.70;;
76171;SDS011;64929;51.178;4.138;2023-07-09T00:49:14;3.65;;;2.63;;
76171;SDS011;64929;51.178;4.138;2023-07-09T00:51:45;5.63;;;2.83;;
76171;SDS011;64929;51.178;4.138;2023-07-09T00:54:20;4.00;;;2.58;;
76171;SDS011;64929;51.178;4.138;2023-07-09T00:56:55;4.63;;;2.78;;
76171;SDS011;64929;51.178;4.138;2023-07-09T00:59:27;3.60;;;2.10;;
76171;SDS011;64929;51.178;4.138;2023-07-09T01:01:56;3.17;;;2.60;;
76171;SDS011;64929;51.178;4.138;2023-07-09T01:04:25;6.38;;;3.00;;
76171;SDS011;64929;51.178;4.138;2023-07-09T01:06:53;3.72;;;2.72;;
76171;SDS011;64929;51.178;4.138;2023-07-09T01:09:23;4.20;;;2.38;;
76171;SDS011;64929;51.178;4.138;2023-07-09T01:11:50;2.90;;;2.25;;
76171;SDS011;64929;51.178;4.138;2023-07-09T01:14:17;3.08;;;2.30;;
76171;SDS011;64929;51.178;4.138;2023-07-09T01:16:48;6.10;;;2.75;;
76171;SDS011;64929;51.178;4.138;2023-07-09T01:19:22;3.65;;;2.58;;
76171;SDS011;64929;51.178;4.138;2023-07-09T01:21:51;7.60;;;2.97;;
76171;SDS011;64929;51.178;4.138;2023-07-09T01:27:15;5.10;;;2.67;;
76171;SDS011;64929;51.178;4.138;2023-07-09T01:29:43;4.35;;;2.95;;
76171;SDS011;64929;51.178;4.138;2023-07-09T01:32:14;3.38;;;2.53;;
76171;SDS011;64929;51.178;4.138;2023-07-09T01:34:42;5.57;;;2.83;;
76171;SDS011;64929;51.178;4.138;2023-07-09T01:37:08;5.55;;;3.38;;
76171;SDS011;64929;51.178;4.138;2023-07-09T01:39:33;4.47;;;3.00;;
76171;SDS011;64929;51.178;4.138;2023-07-09T01:42:01;5.88;;;3.60;;
76171;SDS011;64929;51.178;4.138;2023-07-09T01:44:26;4.38;;;2.97;;
76171;SDS011;64929;51.178;4.138;2023-07-09T01:46:54;4.57;;;3.00;;
76171;SDS011;64929;51.178;4.138;2023-07-09T01:49:20;4.70;;;2.97;;
76171;SDS011;64929;51.178;4.138;2023-07-09T01:51:46;4.10;;;2.80;;
76171;SDS011;64929;51.178;4.138;2023-07-09T01:54:14;5.13;;;3.10;;
76171;SDS011;64929;51.178;4.138;2023-07-09T01:56:42;5.25;;;2.90;;
76171;SDS011;64929;51.178;4.138;2023-07-09T01:59:08;4.53;;;3.08;;
76171;SDS011;64929;51.178;4.138;2023-07-09T02:01:36;4.25;;;3.13;;
76171;SDS011;64929;51.178;4.138;2023-07-09T02:04:03;5.25;;;3.60;;
76171;SDS011;64929;51.178;4.138;2023-07-09T02:06:29;6.57;;;2.97;;
76171;SDS011;64929;51.178;4.138;2023-07-09T02:08:57;4.55;;;3.25;;
76171;SDS011;64929;51.178;4.138;2023-07-09T02:11:23;5.85;;;3.50;;
76171;SDS011;64929;51.178;4.138;2023-07-09T02:13:49;4.13;;;3.20;;
76171;SDS011;64929;51.178;4.138;2023-07-09T02:16:15;6.80;;;3.65;;
76171;SDS011;64929;51.178;4.138;2023-07-09T02:18:41;6.60;;;4.05;;
76171;SDS011;64929;51.178;4.138;2023-07-09T02:21:06;6.90;;;3.95;;
76171;SDS011;64929;51.178;4.138;2023-07-09T02:23:32;8.27;;;4.00;;
76171;SDS011;64929;51.178;4.138;2023-07-09T02:25:58;5.80;;;3.70;;
76171;SDS011;64929;51.178;4.138;2023-07-09T02:28:23;5.13;;;3.72;;
76171;SDS011;64929;51.178;4.138;2023-07-09T02:30:49;5.90;;;3.80;;
76171;SDS011;64929;51.178;4.138;2023-07-09T02:33:15;5.90;;;3.65;;
76171;SDS011;64929;51.178;4.138;2023-07-09T02:35:40;4.75;;;3.70;;
76171;SDS011;64929;51.178;4.138;2023-07-09T02:38:06;6.35;;;3.95;;
76171;SDS011;64929;51.178;4.138;2023-07-09T02:40:32;5.55;;;3.55;;
76171;SDS011;64929;51.178;4.138;2023-07-09T02:42:59;6.05;;;4.30;;
76171;SDS011;64929;51.178;4.138;2023-07-09T02:45:24;6.22;;;3.97;;
76171;SDS011;64929;51.178;4.138;2023-07-09T02:47:50;6.40;;;3.97;;
76171;SDS011;64929;51.178;4.138;2023-07-09T02:50:16;6.82;;;4.72;;
76171;SDS011;64929;51.178;4.138;2023-07-09T02:52:41;5.68;;;4.63;;
76171;SDS011;64929;51.178;4.138;2023-07-09T02:55:07;6.90;;;4.60;;
76171;SDS011;64929;51.178;4.138;2023-07-09T02:57:33;7.57;;;5.05;;
76171;SDS011;64929;51.178;4.138;2023-07-09T02:59:59;6.40;;;4.68;;
76171;SDS011;64929;51.178;4.138;2023-07-09T03:02:25;6.20;;;5.13;;
76171;SDS011;64929;51.178;4.138;2023-07-09T03:04:51;7.75;;;5.20;;
76171;SDS011;64929;51.178;4.138;2023-07-09T03:07:17;7.28;;;5.50;;
76171;SDS011;64929;51.178;4.138;2023-07-09T03:09:43;10.95;;;6.40;;
76171;SDS011;64929;51.178;4.138;2023-07-09T03:12:08;7.38;;;5.57;;
76171;SDS011;64929;51.178;4.138;2023-07-09T03:14:35;6.50;;;5.10;;
76171;SDS011;64929;51.178;4.138;2023-07-09T03:17:01;8.57;;;6.07;;
76171;SDS011;64929;51.178;4.138;2023-07-09T03:19:27;9.88;;;5.80;;
76171;SDS011;64929;51.178;4.138;2023-07-09T03:21:53;9.57;;;6.88;;
76171;SDS011;64929;51.178;4.138;2023-07-09T03:24:19;12.70;;;8.52;;
76171;SDS011;64929;51.178;4.138;2023-07-09T03:26:45;11.73;;;7.45;;
76171;SDS011;64929;51.178;4.138;2023-07-09T03:29:11;10.07;;;7.63;;
76171;SDS011;64929;51.178;4.138;2023-07-09T03:31:37;16.92;;;10.25;;
76171;SDS011;64929;51.178;4.138;2023-07-09T03:34:03;12.82;;;10.10;;
76171;SDS011;64929;51.178;4.138;2023-07-09T03:36:28;16.83;;;11.55;;
76171;SDS011;64929;51.178;4.138;2023-07-09T03:38:55;14.70;;;10.30;;
76171;SDS011;64929;51.178;4.138;2023-07-09T03:41:20;14.57;;;10.85;;
76171;SDS011;64929;51.178;4.138;2023-07-09T03:43:46;16.70;;;10.93;;
76171;SDS011;64929;51.178;4.138;2023-07-09T03:46:15;16.35;;;11.38;;
76171;SDS011;64929;51.178;4.138;2023-07-09T03:48:41;16.67;;;11.73;;
76171;SDS011;64929;51.178;4.138;2023-07-09T03:51:06;16.60;;;11.70;;
76171;SDS011;64929;51.178;4.138;2023-07-09T03:53:32;18.23;;;14.27;;
76171;SDS011;64929;51.178;4.138;2023-07-09T03:55:58;20.05;;;13.02;;
76171;SDS011;64929;51.178;4.138;2023-07-09T03:58:25;20.60;;;12.73;;
76171;SDS011;64929;51.178;4.138;2023-07-09T04:00:51;22.45;;;14.07;;
76171;SDS011;64929;51.178;4.138;2023-07-09T04:03:17;20.48;;;13.93;;
76171;SDS011;64929;51.178;4.138;2023-07-09T04:05:42;19.13;;;14.07;;
76171;SDS011;64929;51.178;4.138;2023-07-09T04:08:08;16.83;;;13.93;;
76171;SDS011;64929;51.178;4.138;2023-07-09T04:10:34;17.85;;;14.05;;
76171;SDS011;64929;51.178;4.138;2023-07-09T04:12:59;17.13;;;13.45;;
76171;SDS011;64929;51.178;4.138;2023-07-09T04:15:25;19.67;;;12.85;;
76171;SDS011;64929;51.178;4.138;2023-07-09T04:17:51;20.02;;;14.35;;
76171;SDS011;64929;51.178;4.138;2023-07-09T04:20:17;18.60;;;14.52;;
76171;SDS011;64929;51.178;4.138;2023-07-09T04:22:43;17.25;;;13.18;;
76171;SDS011;64929;51.178;4.138;2023-07-09T04:25:10;19.45;;;13.90;;
76171;SDS011;64929;51.178;4.138;2023-07-09T04:27:37;19.30;;;12.98;;
76171;SDS011;64929;51.178;4.138;2023-07-09T04:30:04;17.75;;;13.48;;
76171;SDS011;64929;51.178;4.138;2023-07-09T04:32:31;17.67;;;13.75;;
76171;SDS011;64929;51.178;4.138;2023-07-09T04:34:56;19.73;;;14.50;;
76171;SDS011;64929;51.178;4.138;2023-07-09T04:37:22;20.30;;;14.65;;
76171;SDS011;64929;51.178;4.138;2023-07-09T04:39:48;20.80;;;14.32;;
76171;SDS011;64929;51.178;4.138;2023-07-09T04:42:15;21.35;;;14.80;;
76171;SDS011;64929;51.178;4.138;2023-07-09T04:44:41;19.52;;;13.52;;
76171;SDS011;64929;51.178;4.138;2023-07-09T04:47:08;18.42;;;14.48;;
76171;SDS011;64929;51.178;4.138;2023-07-09T04:49:34;19.88;;;15.52;;
76171;SDS011;64929;51.178;4.138;2023-07-09T04:52:00;22.25;;;16.92;;
76171;SDS011;64929;51.178;4.138;2023-07-09T04:54:26;19.40;;;15.55;;
76171;SDS011;64929;51.178;4.138;2023-07-09T04:56:53;20.85;;;16.00;;
76171;SDS011;64929;51.178;4.138;2023-07-09T04:59:19;22.63;;;16.67;;
76171;SDS011;64929;51.178;4.138;2023-07-09T05:01:45;23.25;;;17.13;;
76171;SDS011;64929;51.178;4.138;2023-07-09T05:04:11;22.15;;;17.13;;
76171;SDS011;64929;51.178;4.138;2023-07-09T05:06:37;26.88;;;17.05;;
76171;SDS011;64929;51.178;4.138;2023-07-09T05:09:04;28.15;;;19.10;;
76171;SDS011;64929;51.178;4.138;2023-07-09T05:11:33;26.25;;;19.40;;
76171;SDS011;64929;51.178;4.138;2023-07-09T05:13:59;27.75;;;19.13;;
76171;SDS011;64929;51.178;4.138;2023-07-09T05:16:25;28.75;;;19.95;;
76171;SDS011;64929;51.178;4.138;2023-07-09T05:18:51;25.67;;;20.13;;
76171;SDS011;64929;51.178;4.138;2023-07-09T05:21:16;28.35;;;20.40;;
76171;SDS011;64929;51.178;4.138;2023-07-09T05:23:42;28.13;;;21.38;;
76171;SDS011;64929;51.178;4.138;2023-07-09T05:26:08;29.60;;;22.88;;
76171;SDS011;64929;51.178;4.138;2023-07-09T05:28:34;32.35;;;23.00;;
76171;SDS011;64929;51.178;4.138;2023-07-09T05:31:00;32.35;;;22.77;;
76171;SDS011;64929;51.178;4.138;2023-07-09T05:33:26;30.80;;;22.15;;
76171;SDS011;64929;51.178;4.138;2023-07-09T05:35:51;30.05;;;23.02;;
76171;SDS011;64929;51.178;4.138;2023-07-09T05:38:17;33.10;;;23.40;;
76171;SDS011;64929;51.178;4.138;2023-07-09T05:40:43;36.40;;;23.95;;
76171;SDS011;64929;51.178;4.138;2023-07-09T05:43:09;33.03;;;22.55;;
76171;SDS011;64929;51.178;4.138;2023-07-09T05:45:35;31.52;;;23.05;;
76171;SDS011;64929;51.178;4.138;2023-07-09T05:48:03;32.03;;;23.35;;
76171;SDS011;64929;51.178;4.138;2023-07-09T05:50:29;31.27;;;23.17;;
76171;SDS011;64929;51.178;4.138;2023-07-09T05:52:57;31.27;;;23.65;;
76171;SDS011;64929;51.178;4.138;2023-07-09T05:55:23;34.08;;;24.77;;
76171;SDS011;64929;51.178;4.138;2023-07-09T05:57:49;33.30;;;23.92;;
76171;SDS011;64929;51.178;4.138;2023-07-09T06:00:15;34.22;;;24.42;;
76171;SDS011;64929;51.178;4.138;2023-07-09T06:02:41;35.72;;;24.75;;
76171;SDS011;64929;51.178;4.138;2023-07-09T06:05:07;34.50;;;25.73;;
76171;SDS011;64929;51.178;4.138;2023-07-09T06:07:35;34.30;;;26.08;;
76171;SDS011;64929;51.178;4.138;2023-07-09T06:10:02;35.38;;;26.23;;
76171;SDS011;64929;51.178;4.138;2023-07-09T06:12:28;31.80;;;24.90;;
76171;SDS011;64929;51.178;4.138;2023-07-09T06:14:54;38.70;;;25.05;;
76171;SDS011;64929;51.178;4.138;2023-07-09T06:17:20;36.08;;;25.50;;
76171;SDS011;64929;51.178;4.138;2023-07-09T06:19:45;36.15;;;25.60;;
76171;SDS011;64929;51.178;4.138;2023-07-09T06:22:11;35.78;;;26.00;;
76171;SDS011;64929;51.178;4.138;2023-07-09T06:24:37;37.63;;;25.65;;
76171;SDS011;64929;51.178;4.138;2023-07-09T06:27:03;39.60;;;27.83;;
76171;SDS011;64929;51.178;4.138;2023-07-09T06:29:28;35.47;;;26.98;;
76171;SDS011;64929;51.178;4.138;2023-07-09T06:31:54;38.03;;;27.17;;
76171;SDS011;64929;51.178;4.138;2023-07-09T06:34:20;38.35;;;27.00;;
76171;SDS011;64929;51.178;4.138;2023-07-09T06:36:46;35.50;;;25.73;;
76171;SDS011;64929;51.178;4.138;2023-07-09T06:39:11;35.28;;;25.30;;
76171;SDS011;64929;51.178;4.138;2023-07-09T06:41:37;35.67;;;25.88;;
76171;SDS011;64929;51.178;4.138;2023-07-09T06:44:05;36.38;;;25.10;;
76171;SDS011;64929;51.178;4.138;2023-07-09T06:46:31;33.25;;;24.83;;
76171;SDS011;64929;51.178;4.138;2023-07-09T06:48:57;32.58;;;23.83;;
76171;SDS011;64929;51.178;4.138;2023-07-09T06:51:23;35.10;;;23.85;;
76171;SDS011;64929;51.178;4.138;2023-07-09T06:53:49;32.03;;;22.95;;
76171;SDS011;64929;51.178;4.138;2023-07-09T06:56:16;30.33;;;21.85;;
76171;SDS011;64929;51.178;4.138;2023-07-09T06:58:42;28.55;;;20.77;;
76171;SDS011;64929;51.178;4.138;2023-07-09T07:01:08;27.63;;;20.15;;
76171;SDS011;64929;51.178;4.138;2023-07-09T07:03:36;24.75;;;18.15;;
76171;SDS011;64929;51.178;4.138;2023-07-09T07:06:02;22.73;;;16.17;;
76171;SDS011;64929;51.178;4.138;2023-07-09T07:08:28;21.73;;;15.88;;
76171;SDS011;64929;51.178;4.138;2023-07-09T07:10:55;19.48;;;13.95;;
76171;SDS011;64929;51.178;4.138;2023-07-09T07:13:30;24.15;;;15.45;;
76171;SDS011;64929;51.178;4.138;2023-07-09T07:16:04;22.55;;;14.70;;
76171;SDS011;64929;51.178;4.138;2023-07-09T07:18:32;19.92;;;14.18;;
76171;SDS011;64929;51.178;4.138;2023-07-09T07:20:58;18.08;;;13.98;;
76171;SDS011;64929;51.178;4.138;2023-07-09T07:23:24;17.73;;;13.52;;
76171;SDS011;64929;51.178;4.138;2023-07-09T07:25:50;19.70;;;13.20;;
76171;SDS011;64929;51.178;4.138;2023-07-09T07:28:17;20.55;;;12.75;;
76171;SDS011;64929;51.178;4.138;2023-07-09T07:30:43;16.15;;;11.05;;
76171;SDS011;64929;51.178;4.138;2023-07-09T07:33:09;16.00;;;11.05;;
76171;SDS011;64929;51.178;4.138;2023-07-09T07:35:36;17.42;;;11.02;;
76171;SDS011;64929;51.178;4.138;2023-07-09T07:38:02;12.60;;;9.57;;
76171;SDS011;64929;51.178;4.138;2023-07-09T07:40:28;15.23;;;10.18;;
76171;SDS011;64929;51.178;4.138;2023-07-09T07:42:54;11.48;;;8.75;;
76171;SDS011;64929;51.178;4.138;2023-07-09T07:45:20;10.75;;;7.72;;
76171;SDS011;64929;51.178;4.138;2023-07-09T07:47:46;12.73;;;7.50;;
76171;SDS011;64929;51.178;4.138;2023-07-09T07:50:13;9.30;;;6.25;;
76171;SDS011;64929;51.178;4.138;2023-07-09T07:52:39;9.10;;;5.68;;
76171;SDS011;64929;51.178;4.138;2023-07-09T07:55:05;8.27;;;5.75;;
76171;SDS011;64929;51.178;4.138;2023-07-09T07:57:32;7.93;;;5.22;;
76171;SDS011;64929;51.178;4.138;2023-07-09T07:59:58;7.57;;;4.57;;
76171;SDS011;64929;51.178;4.138;2023-07-09T08:02:24;5.88;;;4.53;;
76171;SDS011;64929;51.178;4.138;2023-07-09T08:04:50;6.68;;;4.43;;
76171;SDS011;64929;51.178;4.138;2023-07-09T08:07:16;5.43;;;4.25;;
76171;SDS011;64929;51.178;4.138;2023-07-09T08:09:43;8.52;;;4.28;;
76171;SDS011;64929;51.178;4.138;2023-07-09T08:12:11;9.05;;;4.78;;
76171;SDS011;64929;51.178;4.138;2023-07-09T08:14:37;4.65;;;4.13;;
76171;SDS011;64929;51.178;4.138;2023-07-09T08:17:04;7.13;;;4.40;;
76171;SDS011;64929;51.178;4.138;2023-07-09T08:19:31;5.97;;;4.10;;
76171;SDS011;64929;51.178;4.138;2023-07-09T08:21:57;6.07;;;4.22;;
76171;SDS011;64929;51.178;4.138;2023-07-09T08:24:23;6.03;;;4.00;;
76171;SDS011;64929;51.178;4.138;2023-07-09T08:26:49;5.10;;;3.45;;
76171;SDS011;64929;51.178;4.138;2023-07-09T08:29:15;4.40;;;3.05;;
76171;SDS011;64929;51.178;4.138;2023-07-09T08:31:41;8.40;;;3.72;;
76171;SDS011;64929;51.178;4.138;2023-07-09T08:34:07;5.15;;;3.20;;
76171;SDS011;64929;51.178;4.138;2023-07-09T08:36:33;5.63;;;2.70;;
76171;SDS011;64929;51.178;4.138;2023-07-09T08:39:02;5.53;;;2.83;;
76171;SDS011;64929;51.178;4.138;2023-07-09T08:41:39;3.53;;;2.35;;
76171;SDS011;64929;51.178;4.138;2023-07-09T08:49:30;4.10;;;2.42;;
76171;SDS011;64929;51.178;4.138;2023-07-09T08:52:29;3.88;;;2.30;;
76171;SDS011;64929;51.178;4.138;2023-07-09T08:54:59;2.92;;;1.92;;
76171;SDS011;64929;51.178;4.138;2023-07-09T08:57:34;3.42;;;2.13;;
76171;SDS011;64929;51.178;4.138;2023-07-09T09:00:27;2.50;;;1.90;;
76171;SDS011;64929;51.178;4.138;2023-07-09T09:05:34;4.28;;;1.90;;
76171;SDS011;64929;51.178;4.138;2023-07-09T09:08:08;2.42;;;1.75;;
76171;SDS011;64929;51.178;4.138;2023-07-09T09:11:05;2.65;;;1.90;;
76171;SDS011;64929;51.178;4.138;2023-07-09T09:13:52;5.25;;;2.20;;
76171;SDS011;64929;51.178;4.138;2023-07-09T09:16:36;3.88;;;1.95;;
76171;SDS011;64929;51.178;4.138;2023-07-09T09:19:06;3.83;;;1.92;;
76171;SDS011;64929;51.178;4.138;2023-07-09T09:22:11;4.65;;;2.10;;
76171;SDS011;64929;51.178;4.138;2023-07-09T09:24:49;3.00;;;2.13;;
76171;SDS011;64929;51.178;4.138;2023-07-09T09:27:28;2.33;;;1.58;;
76171;SDS011;64929;51.178;4.138;2023-07-09T09:29:54;5.85;;;1.80;;
76171;SDS011;64929;51.178;4.138;2023-07-09T09:32:27;3.30;;;2.22;;
76171;SDS011;64929;51.178;4.138;2023-07-09T09:34:56;3.05;;;2.13;;
76171;SDS011;64929;51.178;4.138;2023-07-09T09:37:29;2.30;;;1.83;;
76171;SDS011;64929;51.178;4.138;2023-07-09T09:39:56;2.22;;;1.90;;
76171;SDS011;64929;51.178;4.138;2023-07-09T09:42:23;4.80;;;2.22;;
76171;SDS011;64929;51.178;4.138;2023-07-09T09:44:53;5.07;;;2.08;;
76171;SDS011;64929;51.178;4.138;2023-07-09T09:47:20;4.82;;;2.28;;
76171;SDS011;64929;51.178;4.138;2023-07-09T09:49:46;2.53;;;2.05;;
76171;SDS011;64929;51.178;4.138;2023-07-09T09:52:13;3.13;;;2.13;;
76171;SDS011;64929;51.178;4.138;2023-07-09T09:54:41;2.83;;;1.90;;
76171;SDS011;64929;51.178;4.138;2023-07-09T09:57:19;2.40;;;2.08;;
76171;SDS011;64929;51.178;4.138;2023-07-09T09:59:47;2.63;;;1.90;;
76171;SDS011;64929;51.178;4.138;2023-07-09T10:02:20;2.72;;;1.90;;
76171;SDS011;64929;51.178;4.138;2023-07-09T10:04:48;6.25;;;1.75;;
76171;SDS011;64929;51.178;4.138;2023-07-09T10:07:30;3.03;;;1.90;;
76171;SDS011;64929;51.178;4.138;2023-07-09T10:10:04;3.50;;;2.22;;
76171;SDS011;64929;51.178;4.138;2023-07-09T10:12:46;3.10;;;2.03;;
76171;SDS011;64929;51.178;4.138;2023-07-09T10:20:34;2.72;;;1.90;;
76171;SDS011;64929;51.178;4.138;2023-07-09T10:25:48;2.38;;;1.65;;
76171;SDS011;64929;51.178;4.138;2023-07-09T10:31:31;2.67;;;1.98;;
76171;SDS011;64929;51.178;4.138;2023-07-09T10:39:58;2.72;;;1.58;;
76171;SDS011;64929;51.178;4.138;2023-07-09T10:42:32;1.60;;;1.50;;
76171;SDS011;64929;51.178;4.138;2023-07-09T10:45:13;2.67;;;1.50;;
76171;SDS011;64929;51.178;4.138;2023-07-09T10:47:54;2.35;;;1.60;;
76171;SDS011;64929;51.178;4.138;2023-07-09T10:50:29;1.85;;;1.60;;
76171;SDS011;64929;51.178;4.138;2023-07-09T10:53:05;2.40;;;1.50;;
76171;SDS011;64929;51.178;4.138;2023-07-09T10:55:47;2.88;;;1.60;;
76171;SDS011;64929;51.178;4.138;2023-07-09T10:58:29;2.90;;;1.70;;
76171;SDS011;64929;51.178;4.138;2023-07-09T11:01:06;2.67;;;1.80;;
76171;SDS011;64929;51.178;4.138;2023-07-09T11:03:47;8.85;;;1.65;;
76171;SDS011;64929;51.178;4.138;2023-07-09T11:06:26;2.35;;;1.55;;
76171;SDS011;64929;51.178;4.138;2023-07-09T11:09:21;2.92;;;1.70;;
76171;SDS011;64929;51.178;4.138;2023-07-09T11:11:51;2.40;;;1.60;;
76171;SDS011;64929;51.178;4.138;2023-07-09T11:14:22;2.95;;;2.00;;
76171;SDS011;64929;51.178;4.138;2023-07-09T11:16:58;2.13;;;1.50;;
76171;SDS011;64929;51.178;4.138;2023-07-09T11:19:26;3.28;;;1.90;;
76171;SDS011;64929;51.178;4.138;2023-07-09T11:21:59;2.72;;;2.03;;
76171;SDS011;64929;51.178;4.138;2023-07-09T11:24:33;4.05;;;2.00;;
76171;SDS011;64929;51.178;4.138;2023-07-09T11:29:57;3.58;;;1.80;;
76171;SDS011;64929;51.178;4.138;2023-07-09T11:32:25;2.80;;;1.90;;
76171;SDS011;64929;51.178;4.138;2023-07-09T11:34:52;4.40;;;2.13;;
76171;SDS011;64929;51.178;4.138;2023-07-09T11:37:19;4.68;;;2.10;;
76171;SDS011;64929;51.178;4.138;2023-07-09T11:39:49;2.88;;;1.80;;
76171;SDS011;64929;51.178;4.138;2023-07-09T11:42:32;3.55;;;2.17;;
76171;SDS011;64929;51.178;4.138;2023-07-09T11:45:09;1.67;;;1.52;;
76171;SDS011;64929;51.178;4.138;2023-07-09T11:47:42;3.13;;;1.65;;
76171;SDS011;64929;51.178;4.138;2023-07-09T11:50:34;8.30;;;2.08;;
76171;SDS011;64929;51.178;4.138;2023-07-09T11:53:21;2.58;;;1.88;;
76171;SDS011;64929;51.178;4.138;2023-07-09T11:56:08;2.70;;;1.65;;
76171;SDS011;64929;51.178;4.138;2023-07-09T11:58:34;7.28;;;1.98;;
76171;SDS011;64929;51.178;4.138;2023-07-09T12:01:00;5.20;;;1.95;;
76171;SDS011;64929;51.178;4.138;2023-07-09T12:03:30;3.15;;;1.85;;
76171;SDS011;64929;51.178;4.138;2023-07-09T12:06:00;1.95;;;1.10;;
76171;SDS011;64929;51.178;4.138;2023-07-09T12:08:33;1.90;;;1.38;;
76171;SDS011;64929;51.178;4.138;2023-07-09T12:11:01;2.88;;;1.75;;
76171;SDS011;64929;51.178;4.138;2023-07-09T12:13:27;2.88;;;1.67;;
76171;SDS011;64929;51.178;4.138;2023-07-09T12:15:53;4.45;;;1.52;;
76171;SDS011;64929;51.178;4.138;2023-07-09T12:18:18;3.28;;;1.40;;
76171;SDS011;64929;51.178;4.138;2023-07-09T12:20:48;1.90;;;1.13;;
76171;SDS011;64929;51.178;4.138;2023-07-09T12:25:53;2.72;;;1.20;;
76171;SDS011;64929;51.178;4.138;2023-07-09T12:28:19;2.08;;;1.00;;
76171;SDS011;64929;51.178;4.138;2023-07-09T12:30:50;2.13;;;1.60;;
76171;SDS011;64929;51.178;4.138;2023-07-09T12:33:20;2.22;;;1.48;;
76171;SDS011;64929;51.178;4.138;2023-07-09T12:35:52;2.13;;;1.50;;
76171;SDS011;64929;51.178;4.138;2023-07-09T12:38:22;1.67;;;1.15;;
76171;SDS011;64929;51.178;4.138;2023-07-09T12:40:50;1.83;;;1.23;;
76171;SDS011;64929;51.178;4.138;2023-07-09T12:43:19;2.85;;;1.50;;
76171;SDS011;64929;51.178;4.138;2023-07-09T12:45:51;4.75;;;1.90;;
76171;SDS011;64929;51.178;4.138;2023-07-09T12:48:18;5.07;;;2.10;;
76171;SDS011;64929;51.178;4.138;2023-07-09T12:50:53;4.20;;;1.73;;
76171;SDS011;64929;51.178;4.138;2023-07-09T12:53:23;2.38;;;1.95;;
76171;SDS011;64929;51.178;4.138;2023-07-09T12:55:56;4.90;;;2.22;;
76171;SDS011;64929;51.178;4.138;2023-07-09T12:58:25;7.05;;;2.78;;
76171;SDS011;64929;51.178;4.138;2023-07-09T13:00:55;2.88;;;2.33;;
76171;SDS011;64929;51.178;4.138;2023-07-09T13:03:25;3.58;;;2.17;;
76171;SDS011;64929;51.178;4.138;2023-07-09T13:08:24;4.13;;;2.50;;
76171;SDS011;64929;51.178;4.138;2023-07-09T13:10:51;4.63;;;2.80;;
76171;SDS011;64929;51.178;4.138;2023-07-09T13:13:19;6.05;;;3.03;;
76171;SDS011;64929;51.178;4.138;2023-07-09T13:15:50;6.63;;;3.40;;
76171;SDS011;64929;51.178;4.138;2023-07-09T13:18:22;5.35;;;2.75;;
76171;SDS011;64929;51.178;4.138;2023-07-09T13:20:49;3.97;;;2.75;;
76171;SDS011;64929;51.178;4.138;2023-07-09T13:23:16;5.00;;;3.03;;
76171;SDS011;64929;51.178;4.138;2023-07-09T13:25:44;6.45;;;3.38;;
76171;SDS011;64929;51.178;4.138;2023-07-09T13:28:21;6.07;;;3.33;;
76171;SDS011;64929;51.178;4.138;2023-07-09T13:30:51;3.70;;;3.03;;
76171;SDS011;64929;51.178;4.138;2023-07-09T13:33:20;7.72;;;3.30;;
76171;SDS011;64929;51.178;4.138;2023-07-09T13:35:46;5.43;;;3.35;;
76171;SDS011;64929;51.178;4.138;2023-07-09T13:38:14;5.32;;;3.50;;
76171;SDS011;64929;51.178;4.138;2023-07-09T13:40:44;5.68;;;3.25;;
76171;SDS011;64929;51.178;4.138;2023-07-09T13:43:13;6.82;;;3.65;;
76171;SDS011;64929;51.178;4.138;2023-07-09T13:45:40;11.68;;;3.45;;
76171;SDS011;64929;51.178;4.138;2023-07-09T13:48:16;9.77;;;3.50;;
76171;SDS011;64929;51.178;4.138;2023-07-09T13:50:45;5.50;;;3.92;;
76171;SDS011;64929;51.178;4.138;2023-07-09T13:53:13;6.97;;;3.22;;
76171;SDS011;64929;51.178;4.138;2023-07-09T13:55:42;7.20;;;3.70;;
76171;SDS011;64929;51.178;4.138;2023-07-09T13:58:12;6.88;;;4.18;;
76171;SDS011;64929;51.178;4.138;2023-07-09T14:00:39;7.38;;;4.43;;
76171;SDS011;64929;51.178;4.138;2023-07-09T14:03:19;6.35;;;3.95;;
76171;SDS011;64929;51.178;4.138;2023-07-09T14:05:49;7.75;;;4.57;;
76171;SDS011;64929;51.178;4.138;2023-07-09T14:08:16;7.13;;;3.85;;
76171;SDS011;64929;51.178;4.138;2023-07-09T14:10:42;6.15;;;4.13;;
76171;SDS011;64929;51.178;4.138;2023-07-09T14:13:12;7.40;;;3.85;;
76171;SDS011;64929;51.178;4.138;2023-07-09T14:15:40;9.15;;;4.03;;
76171;SDS011;64929;51.178;4.138;2023-07-09T14:18:16;5.07;;;3.53;;
76171;SDS011;64929;51.178;4.138;2023-07-09T14:20:43;8.35;;;3.75;;
76171;SDS011;64929;51.178;4.138;2023-07-09T14:23:12;7.82;;;3.35;;
76171;SDS011;64929;51.178;4.138;2023-07-09T14:28:12;6.32;;;3.45;;
76171;SDS011;64929;51.178;4.138;2023-07-09T14:30:40;10.95;;;3.40;;
76171;SDS011;64929;51.178;4.138;2023-07-09T14:33:17;4.60;;;3.42;;
76171;SDS011;64929;51.178;4.138;2023-07-09T14:35:44;6.43;;;3.13;;
76171;SDS011;64929;51.178;4.138;2023-07-09T14:38:32;6.50;;;3.03;;
76171;SDS011;64929;51.178;4.138;2023-07-09T14:40:58;6.43;;;3.90;;
76171;SDS011;64929;51.178;4.138;2023-07-09T14:43:25;8.75;;;3.70;;
76171;SDS011;64929;51.178;4.138;2023-07-09T14:45:50;7.35;;;4.30;;
76171;SDS011;64929;51.178;4.138;2023-07-09T14:48:17;6.60;;;4.18;;
76171;SDS011;64929;51.178;4.138;2023-07-09T14:50:44;5.40;;;3.80;;
76171;SDS011;64929;51.178;4.138;2023-07-09T14:53:15;5.68;;;3.15;;
76171;SDS011;64929;51.178;4.138;2023-07-09T14:55:49;5.65;;;3.58;;
76171;SDS011;64929;51.178;4.138;2023-07-09T14:58:18;8.50;;;4.00;;
76171;SDS011;64929;51.178;4.138;2023-07-09T15:00:46;7.15;;;3.92;;
76171;SDS011;64929;51.178;4.138;2023-07-09T15:03:18;9.52;;;5.13;;
76171;SDS011;64929;51.178;4.138;2023-07-09T15:05:48;8.45;;;4.35;;
76171;SDS011;64929;51.178;4.138;2023-07-09T15:08:16;6.38;;;4.07;;
76171;SDS011;64929;51.178;4.138;2023-07-09T15:10:44;6.75;;;4.30;;
76171;SDS011;64929;51.178;4.138;2023-07-09T15:13:24;5.78;;;3.63;;
76171;SDS011;64929;51.178;4.138;2023-07-09T15:15:51;6.40;;;3.40;;
76171;SDS011;64929;51.178;4.138;2023-07-09T15:18:16;5.88;;;3.60;;
76171;SDS011;64929;51.178;4.138;2023-07-09T15:20:53;5.53;;;3.70;;
76171;SDS011;64929;51.178;4.138;2023-07-09T15:23:21;4.78;;;3.20;;
76171;SDS011;64929;51.178;4.138;2023-07-09T15:25:47;3.95;;;2.70;;
76171;SDS011;64929;51.178;4.138;2023-07-09T15:28:15;4.82;;;2.60;;
76171;SDS011;64929;51.178;4.138;2023-07-09T15:30:40;6.43;;;3.03;;
76171;SDS011;64929;51.178;4.138;2023-07-09T15:33:09;5.50;;;3.13;;
76171;SDS011;64929;51.178;4.138;2023-07-09T15:35:42;3.22;;;2.67;;
76171;SDS011;64929;51.178;4.138;2023-07-09T15:40:53;3.85;;;2.60;;